sensor_id;sensor_type;location;lat;lon;timestamp;temperature;humidity
18694;DHT22;9477;51.414;10.362;2022-07-29T00:01:16;23.40;45.80
18694;DHT22;9477;51.414;10.362;2022-07-29T00:03:21;23.40;45.90
18694;DHT22;9477;51.414;10.362;2022-07-29T00:05:24;23.40;45.80
18694;DHT22;9477;51.414;10.362;2022-07-29T00:07:27;23.50;45.80
18694;DHT22;9477;51.414;10.362;2022-07-29T00:09:30;23.40;45.90
18694;DHT22;9477;51.414;10.362;2022-07-29T00:11:42;23.50;45.80
18694;DHT22;9477;51.414;10.362;2022-07-29T00:13:45;23.40;45.90
18694;DHT22;9477;51.414;10.362;2022-07-29T00:15:51;23.30;46.00
18694;DHT22;9477;51.414;10.362;2022-07-29T00:17:54;23.30;46.20
18694;DHT22;9477;51.414;10.362;2022-07-29T00:19:58;23.20;46.30
18694;DHT22;9477;51.414;10.362;2022-07-29T00:22:01;23.20;46.30
18694;DHT22;9477;51.414;10.362;2022-07-29T00:24:04;23.20;46.20
18694;DHT22;9477;51.414;10.362;2022-07-29T00:26:07;23.20;46.10
18694;DHT22;9477;51.414;10.362;2022-07-29T00:28:10;23.10;46.20
18694;DHT22;9477;51.414;10.362;2022-07-29T00:30:12;23.10;46.30
18694;DHT22;9477;51.414;10.362;2022-07-29T00:32:15;23.00;46.40
18694;DHT22;9477;51.414;10.362;2022-07-29T00:34:18;23.10;46.50
18694;DHT22;9477;51.414;10.362;2022-07-29T00:36:40;23.10;46.40
18694;DHT22;9477;51.414;10.362;2022-07-29T00:38:42;23.10;46.30
18694;DHT22;9477;51.414;10.362;2022-07-29T00:40:47;23.00;46.30
18694;DHT22;9477;51.414;10.362;2022-07-29T00:42:50;23.00;46.60
18694;DHT22;9477;51.414;10.362;2022-07-29T00:44:53;23.00;46.50
18694;DHT22;9477;51.414;10.362;2022-07-29T00:46:56;23.00;46.50
18694;DHT22;9477;51.414;10.362;2022-07-29T00:48:59;23.00;46.60
18694;DHT22;9477;51.414;10.362;2022-07-29T00:51:03;23.10;46.50
18694;DHT22;9477;51.414;10.362;2022-07-29T00:53:08;23.00;46.50
18694;DHT22;9477;51.414;10.362;2022-07-29T00:55:12;23.10;46.60
18694;DHT22;9477;51.414;10.362;2022-07-29T00:57:15;23.00;46.60
18694;DHT22;9477;51.414;10.362;2022-07-29T00:59:18;23.10;46.60
18694;DHT22;9477;51.414;10.362;2022-07-29T01:01:20;23.10;46.50
18694;DHT22;9477;51.414;10.362;2022-07-29T01:03:23;23.00;46.60
18694;DHT22;9477;51.414;10.362;2022-07-29T01:05:27;23.10;46.60
18694;DHT22;9477;51.414;10.362;2022-07-29T01:07:52;23.00;46.70
18694;DHT22;9477;51.414;10.362;2022-07-29T01:09:58;22.90;46.80
18694;DHT22;9477;51.414;10.362;2022-07-29T01:12:01;22.90;46.70
18694;DHT22;9477;51.414;10.362;2022-07-29T01:14:06;23.00;46.70
18694;DHT22;9477;51.414;10.362;2022-07-29T01:16:14;23.00;46.70
18694;DHT22;9477;51.414;10.362;2022-07-29T01:18:20;23.00;46.70
18694;DHT22;9477;51.414;10.362;2022-07-29T01:20:30;23.00;46.60
18694;DHT22;9477;51.414;10.362;2022-07-29T01:23:00;23.00;46.90
18694;DHT22;9477;51.414;10.362;2022-07-29T01:25:30;22.90;47.10
18694;DHT22;9477;51.414;10.362;2022-07-29T01:27:44;22.80;47.10
18694;DHT22;9477;51.414;10.362;2022-07-29T01:29:54;22.80;47.20
18694;DHT22;9477;51.414;10.362;2022-07-29T01:32:03;22.70;47.10
18694;DHT22;9477;51.414;10.362;2022-07-29T01:34:08;22.80;47.10
18694;DHT22;9477;51.414;10.362;2022-07-29T01:36:17;22.80;46.90
18694;DHT22;9477;51.414;10.362;2022-07-29T01:38:23;22.60;47.20
18694;DHT22;9477;51.414;10.362;2022-07-29T01:40:32;22.70;47.20
18694;DHT22;9477;51.414;10.362;2022-07-29T01:42:41;22.70;47.30
18694;DHT22;9477;51.414;10.362;2022-07-29T01:44:50;22.70;47.20
18694;DHT22;9477;51.414;10.362;2022-07-29T01:47:00;22.70;47.10
18694;DHT22;9477;51.414;10.362;2022-07-29T01:49:08;22.80;47.10
18694;DHT22;9477;51.414;10.362;2022-07-29T01:51:15;22.80;47.10
18694;DHT22;9477;51.414;10.362;2022-07-29T01:53:25;22.90;47.00
18694;DHT22;9477;51.414;10.362;2022-07-29T01:55:42;22.80;47.10
18694;DHT22;9477;51.414;10.362;2022-07-29T01:57:48;22.90;47.10
18694;DHT22;9477;51.414;10.362;2022-07-29T01:59:52;22.90;47.00
18694;DHT22;9477;51.414;10.362;2022-07-29T02:01:58;22.90;47.10
18694;DHT22;9477;51.414;10.362;2022-07-29T02:04:03;22.90;47.30
18694;DHT22;9477;51.414;10.362;2022-07-29T02:06:08;22.80;47.40
18694;DHT22;9477;51.414;10.362;2022-07-29T02:08:13;22.80;47.40
18694;DHT22;9477;51.414;10.362;2022-07-29T02:10:17;22.80;47.30
18694;DHT22;9477;51.414;10.362;2022-07-29T02:12:28;22.80;47.50
18694;DHT22;9477;51.414;10.362;2022-07-29T02:14:36;22.80;47.50
18694;DHT22;9477;51.414;10.362;2022-07-29T02:16:40;22.80;47.60
18694;DHT22;9477;51.414;10.362;2022-07-29T02:18:45;22.80;47.50
18694;DHT22;9477;51.414;10.362;2022-07-29T02:20:53;22.80;47.50
18694;DHT22;9477;51.414;10.362;2022-07-29T02:22:57;22.80;47.50
18694;DHT22;9477;51.414;10.362;2022-07-29T02:25:01;22.80;47.50
18694;DHT22;9477;51.414;10.362;2022-07-29T02:27:04;22.80;47.80
18694;DHT22;9477;51.414;10.362;2022-07-29T02:29:08;22.70;47.90
18694;DHT22;9477;51.414;10.362;2022-07-29T02:31:12;22.50;47.90
18694;DHT22;9477;51.414;10.362;2022-07-29T02:33:17;22.60;48.10
18694;DHT22;9477;51.414;10.362;2022-07-29T02:35:22;22.60;48.00
18694;DHT22;9477;51.414;10.362;2022-07-29T02:37:26;22.60;48.10
18694;DHT22;9477;51.414;10.362;2022-07-29T02:39:32;22.70;48.10
18694;DHT22;9477;51.414;10.362;2022-07-29T02:41:41;22.70;47.90
18694;DHT22;9477;51.414;10.362;2022-07-29T02:43:47;22.70;47.80
18694;DHT22;9477;51.414;10.362;2022-07-29T02:45:52;22.80;47.80
18694;DHT22;9477;51.414;10.362;2022-07-29T02:47:58;22.70;47.70
18694;DHT22;9477;51.414;10.362;2022-07-29T02:50:06;22.70;47.70
18694;DHT22;9477;51.414;10.362;2022-07-29T02:52:17;22.70;47.70
18694;DHT22;9477;51.414;10.362;2022-07-29T02:54:25;22.70;47.90
18694;DHT22;9477;51.414;10.362;2022-07-29T02:56:32;22.70;47.90
18694;DHT22;9477;51.414;10.362;2022-07-29T02:58:39;22.60;48.00
18694;DHT22;9477;51.414;10.362;2022-07-29T03:00:44;22.60;47.90
18694;DHT22;9477;51.414;10.362;2022-07-29T03:02:51;22.60;48.10
18694;DHT22;9477;51.414;10.362;2022-07-29T03:04:55;22.70;48.00
18694;DHT22;9477;51.414;10.362;2022-07-29T03:07:02;22.60;47.90
18694;DHT22;9477;51.414;10.362;2022-07-29T03:09:07;22.60;48.00
18694;DHT22;9477;51.414;10.362;2022-07-29T03:11:15;22.60;48.00
18694;DHT22;9477;51.414;10.362;2022-07-29T03:13:19;22.60;48.00
18694;DHT22;9477;51.414;10.362;2022-07-29T03:15:22;22.60;48.10
18694;DHT22;9477;51.414;10.362;2022-07-29T03:17:25;22.60;48.00
18694;DHT22;9477;51.414;10.362;2022-07-29T03:19:28;22.50;48.20
18694;DHT22;9477;51.414;10.362;2022-07-29T03:21:31;22.50;48.20
18694;DHT22;9477;51.414;10.362;2022-07-29T03:23:34;22.50;48.20
18694;DHT22;9477;51.414;10.362;2022-07-29T03:25:38;22.50;48.20
18694;DHT22;9477;51.414;10.362;2022-07-29T03:27:41;22.30;48.60
18694;DHT22;9477;51.414;10.362;2022-07-29T03:29:44;22.20;48.70
18694;DHT22;9477;51.414;10.362;2022-07-29T03:31:51;22.30;48.50
18694;DHT22;9477;51.414;10.362;2022-07-29T03:33:54;22.40;48.40
18694;DHT22;9477;51.414;10.362;2022-07-29T03:35:57;22.40;48.40
18694;DHT22;9477;51.414;10.362;2022-07-29T03:38:00;22.40;48.30
18694;DHT22;9477;51.414;10.362;2022-07-29T03:40:05;22.40;48.30
18694;DHT22;9477;51.414;10.362;2022-07-29T03:42:13;22.50;48.30
18694;DHT22;9477;51.414;10.362;2022-07-29T03:44:19;22.40;48.10
18694;DHT22;9477;51.414;10.362;2022-07-29T03:46:24;22.40;48.30
18694;DHT22;9477;51.414;10.362;2022-07-29T03:48:31;22.40;48.30
18694;DHT22;9477;51.414;10.362;2022-07-29T03:50:35;22.50;48.20
18694;DHT22;9477;51.414;10.362;2022-07-29T03:52:38;22.40;48.20
18694;DHT22;9477;51.414;10.362;2022-07-29T03:54:45;22.40;48.30
18694;DHT22;9477;51.414;10.362;2022-07-29T03:56:49;22.30;48.30
18694;DHT22;9477;51.414;10.362;2022-07-29T03:58:55;22.30;48.30
18694;DHT22;9477;51.414;10.362;2022-07-29T04:00:58;22.30;48.50
18694;DHT22;9477;51.414;10.362;2022-07-29T04:03:01;22.40;48.30
18694;DHT22;9477;51.414;10.362;2022-07-29T04:05:12;22.50;48.20
18694;DHT22;9477;51.414;10.362;2022-07-29T04:07:15;22.40;48.20
18694;DHT22;9477;51.414;10.362;2022-07-29T04:09:18;22.50;48.10
18694;DHT22;9477;51.414;10.362;2022-07-29T04:11:21;22.40;48.20
18694;DHT22;9477;51.414;10.362;2022-07-29T04:13:23;22.20;48.60
18694;DHT22;9477;51.414;10.362;2022-07-29T04:15:28;22.20;49.00
18694;DHT22;9477;51.414;10.362;2022-07-29T04:17:32;22.20;48.80
18694;DHT22;9477;51.414;10.362;2022-07-29T04:19:35;22.20;48.90
18694;DHT22;9477;51.414;10.362;2022-07-29T04:21:38;22.20;48.90
18694;DHT22;9477;51.414;10.362;2022-07-29T04:23:41;22.30;49.00
18694;DHT22;9477;51.414;10.362;2022-07-29T04:25:54;22.30;48.90
18694;DHT22;9477;51.414;10.362;2022-07-29T04:27:57;22.30;49.10
18694;DHT22;9477;51.414;10.362;2022-07-29T04:30:03;22.30;49.00
18694;DHT22;9477;51.414;10.362;2022-07-29T04:32:08;22.30;49.00
18694;DHT22;9477;51.414;10.362;2022-07-29T04:34:11;22.40;48.70
18694;DHT22;9477;51.414;10.362;2022-07-29T04:36:15;22.40;48.50
18694;DHT22;9477;51.414;10.362;2022-07-29T04:38:30;22.40;48.40
18694;DHT22;9477;51.414;10.362;2022-07-29T04:40:33;22.50;48.60
18694;DHT22;9477;51.414;10.362;2022-07-29T04:42:39;22.50;48.40
18694;DHT22;9477;51.414;10.362;2022-07-29T04:44:47;22.40;48.60
18694;DHT22;9477;51.414;10.362;2022-07-29T04:46:51;22.50;48.60
18694;DHT22;9477;51.414;10.362;2022-07-29T04:48:55;22.50;48.50
18694;DHT22;9477;51.414;10.362;2022-07-29T04:50:58;22.50;48.80
18694;DHT22;9477;51.414;10.362;2022-07-29T04:53:00;22.50;48.60
18694;DHT22;9477;51.414;10.362;2022-07-29T04:55:05;22.40;48.80
18694;DHT22;9477;51.414;10.362;2022-07-29T04:57:07;22.40;48.70
18694;DHT22;9477;51.414;10.362;2022-07-29T04:59:10;22.40;49.00
18694;DHT22;9477;51.414;10.362;2022-07-29T05:01:13;22.40;49.10
18694;DHT22;9477;51.414;10.362;2022-07-29T05:03:17;22.40;49.00
18694;DHT22;9477;51.414;10.362;2022-07-29T05:05:21;22.40;49.00
18694;DHT22;9477;51.414;10.362;2022-07-29T05:07:24;22.50;49.00
18694;DHT22;9477;51.414;10.362;2022-07-29T05:09:26;22.50;49.10
18694;DHT22;9477;51.414;10.362;2022-07-29T05:11:29;22.50;49.30
18694;DHT22;9477;51.414;10.362;2022-07-29T05:13:32;22.30;49.30
18694;DHT22;9477;51.414;10.362;2022-07-29T05:15:46;22.40;49.30
18694;DHT22;9477;51.414;10.362;2022-07-29T05:17:49;22.40;49.30
18694;DHT22;9477;51.414;10.362;2022-07-29T05:19:52;22.50;49.10
18694;DHT22;9477;51.414;10.362;2022-07-29T05:21:56;22.50;49.10
18694;DHT22;9477;51.414;10.362;2022-07-29T05:23:59;22.60;49.00
18694;DHT22;9477;51.414;10.362;2022-07-29T05:26:02;22.60;48.70
18694;DHT22;9477;51.414;10.362;2022-07-29T05:28:04;22.60;48.80
18694;DHT22;9477;51.414;10.362;2022-07-29T05:30:08;22.60;48.80
18694;DHT22;9477;51.414;10.362;2022-07-29T05:32:11;22.50;48.90
18694;DHT22;9477;51.414;10.362;2022-07-29T05:34:14;22.50;48.90
18694;DHT22;9477;51.414;10.362;2022-07-29T05:36:17;22.60;49.00
18694;DHT22;9477;51.414;10.362;2022-07-29T05:38:21;22.70;48.80
18694;DHT22;9477;51.414;10.362;2022-07-29T05:40:24;22.70;48.80
18694;DHT22;9477;51.414;10.362;2022-07-29T05:42:27;22.70;48.80
18694;DHT22;9477;51.414;10.362;2022-07-29T05:44:30;22.80;48.80
18694;DHT22;9477;51.414;10.362;2022-07-29T05:46:38;22.70;48.90
18694;DHT22;9477;51.414;10.362;2022-07-29T05:48:41;22.70;48.90
18694;DHT22;9477;51.414;10.362;2022-07-29T05:50:44;22.70;49.10
18694;DHT22;9477;51.414;10.362;2022-07-29T05:52:47;22.80;49.00
18694;DHT22;9477;51.414;10.362;2022-07-29T05:54:51;22.70;49.00
18694;DHT22;9477;51.414;10.362;2022-07-29T05:56:54;22.70;49.20
18694;DHT22;9477;51.414;10.362;2022-07-29T05:58:57;22.70;49.30
18694;DHT22;9477;51.414;10.362;2022-07-29T06:01:00;22.70;49.10
18694;DHT22;9477;51.414;10.362;2022-07-29T06:03:03;22.80;49.10
18694;DHT22;9477;51.414;10.362;2022-07-29T06:05:06;22.90;49.20
18694;DHT22;9477;51.414;10.362;2022-07-29T06:07:17;23.00;49.10
18694;DHT22;9477;51.414;10.362;2022-07-29T06:09:20;23.00;49.00
18694;DHT22;9477;51.414;10.362;2022-07-29T06:11:25;23.10;49.20
18694;DHT22;9477;51.414;10.362;2022-07-29T06:13:28;23.20;49.40
18694;DHT22;9477;51.414;10.362;2022-07-29T06:15:31;23.20;49.80
18694;DHT22;9477;51.414;10.362;2022-07-29T06:17:34;23.40;49.10
18694;DHT22;9477;51.414;10.362;2022-07-29T06:19:38;23.50;48.90
18694;DHT22;9477;51.414;10.362;2022-07-29T06:21:42;23.60;48.90
18694;DHT22;9477;51.414;10.362;2022-07-29T06:23:45;23.40;48.80
18694;DHT22;9477;51.414;10.362;2022-07-29T06:25:48;23.40;48.60
18694;DHT22;9477;51.414;10.362;2022-07-29T06:27:52;23.40;49.00
18694;DHT22;9477;51.414;10.362;2022-07-29T06:29:56;23.50;48.90
18694;DHT22;9477;51.414;10.362;2022-07-29T06:31:59;23.60;48.60
18694;DHT22;9477;51.414;10.362;2022-07-29T06:34:02;23.60;48.40
18694;DHT22;9477;51.414;10.362;2022-07-29T06:36:05;23.60;48.50
18694;DHT22;9477;51.414;10.362;2022-07-29T06:38:09;23.60;48.50
18694;DHT22;9477;51.414;10.362;2022-07-29T06:40:32;23.60;49.30
18694;DHT22;9477;51.414;10.362;2022-07-29T06:42:54;23.70;48.90
18694;DHT22;9477;51.414;10.362;2022-07-29T06:44:57;23.70;49.30
18694;DHT22;9477;51.414;10.362;2022-07-29T06:47:00;23.70;49.30
18694;DHT22;9477;51.414;10.362;2022-07-29T06:49:03;23.80;49.20
18694;DHT22;9477;51.414;10.362;2022-07-29T06:51:06;23.90;49.30
18694;DHT22;9477;51.414;10.362;2022-07-29T06:53:09;24.00;49.30
18694;DHT22;9477;51.414;10.362;2022-07-29T06:55:13;24.10;49.00
18694;DHT22;9477;51.414;10.362;2022-07-29T06:57:25;24.10;48.70
18694;DHT22;9477;51.414;10.362;2022-07-29T06:59:30;24.20;48.50
18694;DHT22;9477;51.414;10.362;2022-07-29T07:01:37;24.30;48.50
18694;DHT22;9477;51.414;10.362;2022-07-29T07:03:40;24.20;48.80
18694;DHT22;9477;51.414;10.362;2022-07-29T07:05:44;24.20;48.90
18694;DHT22;9477;51.414;10.362;2022-07-29T07:07:46;24.30;48.90
18694;DHT22;9477;51.414;10.362;2022-07-29T07:09:49;24.20;48.70
18694;DHT22;9477;51.414;10.362;2022-07-29T07:11:52;24.20;48.80
18694;DHT22;9477;51.414;10.362;2022-07-29T07:13:55;24.30;48.80
18694;DHT22;9477;51.414;10.362;2022-07-29T07:16:05;24.50;48.60
18694;DHT22;9477;51.414;10.362;2022-07-29T07:18:08;24.50;48.70
18694;DHT22;9477;51.414;10.362;2022-07-29T07:20:11;24.40;49.40
18694;DHT22;9477;51.414;10.362;2022-07-29T07:22:14;24.50;48.80
18694;DHT22;9477;51.414;10.362;2022-07-29T07:24:17;24.60;48.80
18694;DHT22;9477;51.414;10.362;2022-07-29T07:26:20;24.60;49.40
18694;DHT22;9477;51.414;10.362;2022-07-29T07:28:23;24.70;48.70
18694;DHT22;9477;51.414;10.362;2022-07-29T07:30:26;24.70;48.70
18694;DHT22;9477;51.414;10.362;2022-07-29T07:32:30;24.70;49.10
18694;DHT22;9477;51.414;10.362;2022-07-29T07:34:34;24.70;49.40
18694;DHT22;9477;51.414;10.362;2022-07-29T07:36:37;24.80;49.00
18694;DHT22;9477;51.414;10.362;2022-07-29T07:38:40;24.90;48.80
18694;DHT22;9477;51.414;10.362;2022-07-29T07:40:42;25.00;48.80
18694;DHT22;9477;51.414;10.362;2022-07-29T07:42:47;25.10;48.90
18694;DHT22;9477;51.414;10.362;2022-07-29T07:44:50;24.90;48.30
18694;DHT22;9477;51.414;10.362;2022-07-29T07:47:13;25.00;48.80
18694;DHT22;9477;51.414;10.362;2022-07-29T07:49:20;25.00;48.60
18694;DHT22;9477;51.414;10.362;2022-07-29T07:51:23;25.10;48.70
18694;DHT22;9477;51.414;10.362;2022-07-29T07:53:25;25.20;48.50
18694;DHT22;9477;51.414;10.362;2022-07-29T07:55:28;25.30;48.20
18694;DHT22;9477;51.414;10.362;2022-07-29T07:57:51;25.30;48.60
18694;DHT22;9477;51.414;10.362;2022-07-29T07:59:54;25.30;48.30
18694;DHT22;9477;51.414;10.362;2022-07-29T08:01:57;25.30;48.30
18694;DHT22;9477;51.414;10.362;2022-07-29T08:04:00;25.40;48.40
18694;DHT22;9477;51.414;10.362;2022-07-29T08:06:04;25.50;48.30
18694;DHT22;9477;51.414;10.362;2022-07-29T08:08:07;25.60;48.00
18694;DHT22;9477;51.414;10.362;2022-07-29T08:10:10;25.70;48.20
18694;DHT22;9477;51.414;10.362;2022-07-29T08:12:13;25.70;48.10
18694;DHT22;9477;51.414;10.362;2022-07-29T08:14:16;25.80;47.70
18694;DHT22;9477;51.414;10.362;2022-07-29T08:16:19;25.90;47.60
18694;DHT22;9477;51.414;10.362;2022-07-29T08:18:22;26.00;47.50
18694;DHT22;9477;51.414;10.362;2022-07-29T08:20:25;26.00;48.10
18694;DHT22;9477;51.414;10.362;2022-07-29T08:22:30;26.00;47.90
18694;DHT22;9477;51.414;10.362;2022-07-29T08:24:32;26.20;47.70
18694;DHT22;9477;51.414;10.362;2022-07-29T08:26:54;26.30;47.70
18694;DHT22;9477;51.414;10.362;2022-07-29T08:28:57;26.50;47.60
18694;DHT22;9477;51.414;10.362;2022-07-29T08:31:00;26.70;47.40
18694;DHT22;9477;51.414;10.362;2022-07-29T08:33:02;26.90;47.00
18694;DHT22;9477;51.414;10.362;2022-07-29T08:35:06;27.10;46.50
18694;DHT22;9477;51.414;10.362;2022-07-29T08:37:09;27.20;45.90
18694;DHT22;9477;51.414;10.362;2022-07-29T08:39:13;27.20;46.10
18694;DHT22;9477;51.414;10.362;2022-07-29T08:41:16;27.10;46.70
18694;DHT22;9477;51.414;10.362;2022-07-29T08:43:20;27.10;45.80
18694;DHT22;9477;51.414;10.362;2022-07-29T08:45:23;27.10;46.30
18694;DHT22;9477;51.414;10.362;2022-07-29T08:47:27;27.10;46.30
18694;DHT22;9477;51.414;10.362;2022-07-29T08:49:32;27.20;46.10
18694;DHT22;9477;51.414;10.362;2022-07-29T08:51:36;27.30;47.00
18694;DHT22;9477;51.414;10.362;2022-07-29T08:53:50;27.50;46.10
18694;DHT22;9477;51.414;10.362;2022-07-29T08:55:55;27.50;45.50
18694;DHT22;9477;51.414;10.362;2022-07-29T08:57:58;27.60;45.70
18694;DHT22;9477;51.414;10.362;2022-07-29T09:00:05;27.70;45.30
18694;DHT22;9477;51.414;10.362;2022-07-29T09:02:19;27.70;45.60
18694;DHT22;9477;51.414;10.362;2022-07-29T09:04:24;27.60;46.20
18694;DHT22;9477;51.414;10.362;2022-07-29T09:06:32;27.60;46.30
18694;DHT22;9477;51.414;10.362;2022-07-29T09:08:37;27.60;46.40
18694;DHT22;9477;51.414;10.362;2022-07-29T09:10:40;27.50;46.30
18694;DHT22;9477;51.414;10.362;2022-07-29T09:12:44;27.40;46.10
18694;DHT22;9477;51.414;10.362;2022-07-29T09:14:47;27.50;46.20
18694;DHT22;9477;51.414;10.362;2022-07-29T09:16:52;27.50;45.90
18694;DHT22;9477;51.414;10.362;2022-07-29T09:18:55;27.60;45.80
18694;DHT22;9477;51.414;10.362;2022-07-29T09:20:58;27.70;45.30
18694;DHT22;9477;51.414;10.362;2022-07-29T09:23:18;27.80;45.40
18694;DHT22;9477;51.414;10.362;2022-07-29T09:25:34;27.70;45.50
18694;DHT22;9477;51.414;10.362;2022-07-29T09:27:37;27.70;46.10
18694;DHT22;9477;51.414;10.362;2022-07-29T09:29:42;27.60;46.40
18694;DHT22;9477;51.414;10.362;2022-07-29T09:31:46;27.50;46.80
18694;DHT22;9477;51.414;10.362;2022-07-29T09:33:50;27.50;46.80
18694;DHT22;9477;51.414;10.362;2022-07-29T09:36:04;27.60;46.70
18694;DHT22;9477;51.414;10.362;2022-07-29T09:38:10;27.60;46.60
18694;DHT22;9477;51.414;10.362;2022-07-29T09:40:16;27.60;46.80
18694;DHT22;9477;51.414;10.362;2022-07-29T09:42:27;27.70;46.40
18694;DHT22;9477;51.414;10.362;2022-07-29T09:44:48;27.70;46.30
18694;DHT22;9477;51.414;10.362;2022-07-29T09:46:59;27.70;46.70
18694;DHT22;9477;51.414;10.362;2022-07-29T09:49:07;27.80;47.40
18694;DHT22;9477;51.414;10.362;2022-07-29T09:51:17;28.00;46.60
18694;DHT22;9477;51.414;10.362;2022-07-29T09:53:32;28.00;46.70
18694;DHT22;9477;51.414;10.362;2022-07-29T09:55:46;28.00;47.40
18694;DHT22;9477;51.414;10.362;2022-07-29T09:57:49;28.10;46.80
18694;DHT22;9477;51.414;10.362;2022-07-29T09:59:58;28.20;46.50
18694;DHT22;9477;51.414;10.362;2022-07-29T10:02:11;28.30;46.50
18694;DHT22;9477;51.414;10.362;2022-07-29T10:04:18;28.30;45.70
18694;DHT22;9477;51.414;10.362;2022-07-29T10:06:21;28.40;45.90
18694;DHT22;9477;51.414;10.362;2022-07-29T10:08:25;28.40;46.10
18694;DHT22;9477;51.414;10.362;2022-07-29T10:10:31;28.50;46.10
18694;DHT22;9477;51.414;10.362;2022-07-29T10:12:48;28.50;45.70
18694;DHT22;9477;51.414;10.362;2022-07-29T10:14:51;28.60;45.40
18694;DHT22;9477;51.414;10.362;2022-07-29T10:16:57;28.60;45.50
18694;DHT22;9477;51.414;10.362;2022-07-29T10:19:00;28.60;45.00
18694;DHT22;9477;51.414;10.362;2022-07-29T10:21:03;28.80;44.90
18694;DHT22;9477;51.414;10.362;2022-07-29T10:23:06;29.10;44.80
18694;DHT22;9477;51.414;10.362;2022-07-29T10:25:10;29.10;44.90
18694;DHT22;9477;51.414;10.362;2022-07-29T10:27:13;29.10;44.20
18694;DHT22;9477;51.414;10.362;2022-07-29T10:29:16;29.30;44.00
18694;DHT22;9477;51.414;10.362;2022-07-29T10:31:26;29.60;44.20
18694;DHT22;9477;51.414;10.362;2022-07-29T10:33:43;29.70;43.60
18694;DHT22;9477;51.414;10.362;2022-07-29T10:36:11;29.70;42.00
18694;DHT22;9477;51.414;10.362;2022-07-29T10:38:41;29.50;42.00
18694;DHT22;9477;51.414;10.362;2022-07-29T10:40:54;29.60;42.20
18694;DHT22;9477;51.414;10.362;2022-07-29T10:43:23;29.40;42.50
18694;DHT22;9477;51.414;10.362;2022-07-29T10:45:26;29.40;42.00
18694;DHT22;9477;51.414;10.362;2022-07-29T10:47:32;29.60;42.60
18694;DHT22;9477;51.414;10.362;2022-07-29T10:49:37;29.80;42.80
18694;DHT22;9477;51.414;10.362;2022-07-29T10:51:59;29.90;42.70
18694;DHT22;9477;51.414;10.362;2022-07-29T10:54:02;30.00;42.00
18694;DHT22;9477;51.414;10.362;2022-07-29T10:56:23;30.00;42.20
18694;DHT22;9477;51.414;10.362;2022-07-29T10:58:27;29.90;41.60
18694;DHT22;9477;51.414;10.362;2022-07-29T11:00:33;30.00;42.20
18694;DHT22;9477;51.414;10.362;2022-07-29T11:02:43;30.00;41.80
18694;DHT22;9477;51.414;10.362;2022-07-29T11:05:00;30.10;41.90
18694;DHT22;9477;51.414;10.362;2022-07-29T11:07:08;30.20;42.40
18694;DHT22;9477;51.414;10.362;2022-07-29T11:09:18;30.30;41.50
18694;DHT22;9477;51.414;10.362;2022-07-29T11:11:38;30.30;40.70
18694;DHT22;9477;51.414;10.362;2022-07-29T11:13:52;30.30;40.70
18694;DHT22;9477;51.414;10.362;2022-07-29T11:15:57;30.40;40.90
18694;DHT22;9477;51.414;10.362;2022-07-29T11:18:08;30.50;41.40
18694;DHT22;9477;51.414;10.362;2022-07-29T11:20:36;30.60;41.00
18694;DHT22;9477;51.414;10.362;2022-07-29T11:22:39;30.60;40.30
18694;DHT22;9477;51.414;10.362;2022-07-29T11:25:13;30.60;40.00
18694;DHT22;9477;51.414;10.362;2022-07-29T11:27:18;30.50;39.30
18694;DHT22;9477;51.414;10.362;2022-07-29T11:29:21;30.50;39.80
18694;DHT22;9477;51.414;10.362;2022-07-29T11:31:38;30.40;40.00
18694;DHT22;9477;51.414;10.362;2022-07-29T11:33:42;30.40;40.00
18694;DHT22;9477;51.414;10.362;2022-07-29T11:36:12;30.30;40.00
18694;DHT22;9477;51.414;10.362;2022-07-29T11:38:25;30.40;40.60
18694;DHT22;9477;51.414;10.362;2022-07-29T11:40:29;30.60;40.00
18694;DHT22;9477;51.414;10.362;2022-07-29T11:42:45;30.70;40.10
18694;DHT22;9477;51.414;10.362;2022-07-29T11:44:56;30.70;39.60
18694;DHT22;9477;51.414;10.362;2022-07-29T11:47:05;30.70;39.70
18694;DHT22;9477;51.414;10.362;2022-07-29T11:49:11;30.80;39.70
18694;DHT22;9477;51.414;10.362;2022-07-29T11:51:17;30.90;39.70
18694;DHT22;9477;51.414;10.362;2022-07-29T11:53:33;31.00;39.70
18694;DHT22;9477;51.414;10.362;2022-07-29T11:55:38;31.10;39.10
18694;DHT22;9477;51.414;10.362;2022-07-29T11:57:53;31.10;38.90
18694;DHT22;9477;51.414;10.362;2022-07-29T12:00:06;31.20;38.80
18694;DHT22;9477;51.414;10.362;2022-07-29T12:02:15;31.20;38.60
18694;DHT22;9477;51.414;10.362;2022-07-29T12:04:48;31.10;38.30
18694;DHT22;9477;51.414;10.362;2022-07-29T12:06:54;31.10;38.00
18694;DHT22;9477;51.414;10.362;2022-07-29T12:09:06;31.00;38.30
18694;DHT22;9477;51.414;10.362;2022-07-29T12:11:16;31.10;38.30
18694;DHT22;9477;51.414;10.362;2022-07-29T12:13:22;31.00;37.60
18694;DHT22;9477;51.414;10.362;2022-07-29T12:15:38;31.10;38.10
18694;DHT22;9477;51.414;10.362;2022-07-29T12:17:47;31.10;38.50
18694;DHT22;9477;51.414;10.362;2022-07-29T12:19:50;31.20;38.20
18694;DHT22;9477;51.414;10.362;2022-07-29T12:21:55;31.10;37.90
18694;DHT22;9477;51.414;10.362;2022-07-29T12:24:00;31.20;38.00
18694;DHT22;9477;51.414;10.362;2022-07-29T12:26:10;31.20;37.80
18694;DHT22;9477;51.414;10.362;2022-07-29T12:28:22;31.20;37.80
18694;DHT22;9477;51.414;10.362;2022-07-29T12:30:36;31.10;37.70
18694;DHT22;9477;51.414;10.362;2022-07-29T12:32:44;31.20;37.70
18694;DHT22;9477;51.414;10.362;2022-07-29T12:34:47;31.20;38.00
18694;DHT22;9477;51.414;10.362;2022-07-29T12:36:50;31.10;37.70
18694;DHT22;9477;51.414;10.362;2022-07-29T12:38:54;31.00;37.20
18694;DHT22;9477;51.414;10.362;2022-07-29T12:40:57;30.90;37.30
18694;DHT22;9477;51.414;10.362;2022-07-29T12:43:11;31.00;37.90
18694;DHT22;9477;51.414;10.362;2022-07-29T12:45:14;31.00;38.20
18694;DHT22;9477;51.414;10.362;2022-07-29T12:47:18;31.00;38.10
18694;DHT22;9477;51.414;10.362;2022-07-29T12:49:22;31.10;38.40
18694;DHT22;9477;51.414;10.362;2022-07-29T12:51:29;31.30;38.30
18694;DHT22;9477;51.414;10.362;2022-07-29T12:53:33;31.40;38.40
18694;DHT22;9477;51.414;10.362;2022-07-29T12:55:45;31.40;37.60
18694;DHT22;9477;51.414;10.362;2022-07-29T12:57:51;31.40;37.40
18694;DHT22;9477;51.414;10.362;2022-07-29T13:00:07;31.60;37.20
18694;DHT22;9477;51.414;10.362;2022-07-29T13:02:20;31.60;38.10
18694;DHT22;9477;51.414;10.362;2022-07-29T13:04:24;31.80;37.20
18694;DHT22;9477;51.414;10.362;2022-07-29T13:06:34;31.80;37.00
18694;DHT22;9477;51.414;10.362;2022-07-29T13:08:37;32.00;37.60
18694;DHT22;9477;51.414;10.362;2022-07-29T13:10:40;32.00;37.40
18694;DHT22;9477;51.414;10.362;2022-07-29T13:13:05;32.10;37.10
18694;DHT22;9477;51.414;10.362;2022-07-29T13:15:14;32.30;36.90
18694;DHT22;9477;51.414;10.362;2022-07-29T13:17:19;32.20;36.30
18694;DHT22;9477;51.414;10.362;2022-07-29T13:19:33;32.20;35.50